Colonie, NY

7:56 AM EDT on March 29, 2017 (GMT -0400)
South Colonie - Cook Park Area | | Change Station

Elev 318 ft 42.71 °N, 73.84 °W | Updated 36 seconds ago

Light Rain
Light Rain Mist
38.7 °F
Feels Like 39 °F
N
1.7
Wind Variable Wind from SSW

Today
High -- | Low -- °F
--% Chance of Precip.
Yesterday
High -- | Low -- °F
Precip. -- in
Pressure 30.11 in
Visibility 4.0 miles
Clouds Scattered Clouds 500 ft
Mostly Cloudy 700 ft
Overcast 2000 ft
Windchill 39 °F
Dew Point 37 °F
Humidity 94%
Rainfall 0.05 in
Snow Depth Not available.
6:42 AM 7:18 PM
Waxing Crescent, 3% visible
METAR KALB 291151Z 01006KT 4SM -RA BR SCT005 BKN007 OVC020 04/02 A3010 RMK AO2 SLP195 P0003 60005 70027 T00390017 10050 20039 51013
Pressure 30.11 in
Visibility 4.0 miles
Clouds Scattered Clouds 500 ft
Mostly Cloudy 700 ft
Overcast 2000 ft
Windchill 39 °F
Dew Point 37 °F
Humidity 94%
Rainfall 0.05 in
Snow Depth Not available.
6:42 AM 7:18 PM
Waxing Crescent, 3% visible
METAR KALB 291151Z 01006KT 4SM -RA BR SCT005 BKN007 OVC020 04/02 A3010 RMK AO2 SLP195 P0003 60005 70027 T00390017 10050 20039 51013

Get Severe Weather Alerts

Thanks for signing up!

Be on the lookout for a verification email in your inbox.

You'll start receiving the daily forecast at 8 AM.

×

10-Day Weather Forecast

Almanac

Astronomy

Mar. 29, 2017 Rise Set
Actual Time
Civil Twilight
Nautical Twilight
Astronomical Twilight
Moon
Length of Visible Light
Length of Day
Tomorrow will be .
, % of the Moon is Illuminated

Today's Extremes

State Highs State Lows

Community

WunderPhotos

Upload Photos

1,962,540 photos uploaded!

WunderBlog® & News

Nearby

Air Quality

  Air Quality AQ Index Pollutant
Not available.

Snow Depth

Station Depth Elevation

Earthquake Activity

City Distance Mag. Time & Date
Minimum magnitude displayed is 2.5.

Earthquake Activity

City Distance Mag. Time & Date
Minimum magnitude displayed is 2.5.

Coastal Water Temperatures

Place Temperature

Stations

Nearby Weather Stations

Station Location Temp. Windchill Dew Point Humidity Wind Precip. Elev Updated Type
                   

Watches & Warnings

There are currently no watches in effect.